createdAt,value
2016-11-09T00:00:29.633Z,83.25
2016-11-09T00:01:40.077Z,83.83
2016-11-09T00:02:50.547Z,83.92
2016-11-09T00:04:00.984Z,83.63
2016-11-09T00:05:11.425Z,84.11
2016-11-09T00:06:22.064Z,84.01
2016-11-09T00:07:32.536Z,83.83
2016-11-09T00:08:42.977Z,84.41
2016-11-09T00:10:07.957Z,84.59
2016-11-09T00:11:18.394Z,84.59
2016-11-09T00:12:28.836Z,84.31
2016-11-09T00:13:39.278Z,84.5
2016-11-09T00:14:49.719Z,84.59
2016-11-09T00:16:14.701Z,84.79
2016-11-09T00:17:25.241Z,84.21
2016-11-09T00:18:35.683Z,84.69
2016-11-09T00:19:46.611Z,84.59
2016-11-09T00:20:57.056Z,83.92
2016-11-09T00:22:07.497Z,84.5
2016-11-09T00:23:17.945Z,84.69
2016-11-09T00:24:28.332Z,84.21
2016-11-09T00:25:53.222Z,83.83
2016-11-09T00:27:03.544Z,84.21
2016-11-09T00:28:13.864Z,83.92
2016-11-09T00:29:24.186Z,83.92
2016-11-09T00:30:34.503Z,83.63
2016-11-09T00:31:44.857Z,83.53
2016-11-09T00:32:55.281Z,83.53
2016-11-09T00:34:05.603Z,83.53
2016-11-09T00:35:15.923Z,83.83
2016-11-09T00:36:26.246Z,83.53
2016-11-09T00:37:36.565Z,83.63
2016-11-09T00:38:46.888Z,83.83
2016-11-09T00:40:11.777Z,83.53
2016-11-09T00:41:22.097Z,84.41
2016-11-09T00:42:32.415Z,84.59
2016-11-09T00:43:42.771Z,84.69
2016-11-09T00:44:53.092Z,84.5
2016-11-09T00:47:28.312Z,84.31
2016-11-09T00:48:38.632Z,84.69
2016-11-09T00:50:03.997Z,84.84
2016-11-09T00:51:14.341Z,85.37
2016-11-09T00:52:24.660Z,85.66
2016-11-09T00:53:34.981Z,85.56
2016-11-09T00:54:45.313Z,84.89
2016-11-09T00:55:55.765Z,84.89
2016-11-09T00:57:06.703Z,84.79
2016-11-09T00:58:17.159Z,84.89
2016-11-09T00:59:27.630Z,84.89
2016-11-09T01:00:38.079Z,84.89
2016-11-09T01:01:48.538Z,84.69
2016-11-09T01:02:58.988Z,84.98
2016-11-09T01:04:09.446Z,85.08
2016-11-09T01:05:19.965Z,85.46
2016-11-09T01:06:30.422Z,85.27
2016-11-09T01:07:41.137Z,85.37
2016-11-09T01:09:06.140Z,85.27
2016-11-09T01:10:31.624Z,84.98
2016-11-09T01:11:42.064Z,85.37
2016-11-09T01:13:07.054Z,85.66
2016-11-09T01:14:17.491Z,85.66
2016-11-09T01:15:27.963Z,85.37
2016-11-09T01:16:38.410Z,85.85
2016-11-09T01:18:03.394Z,85.46
2016-11-09T01:19:13.831Z,85.66
2016-11-09T01:20:24.295Z,85.94
2016-11-09T01:21:35.221Z,85.66
2016-11-09T01:22:45.694Z,85.66
2016-11-09T01:24:10.878Z,85.37
2016-11-09T01:25:21.320Z,86.04
2016-11-09T01:26:46.304Z,86.62
2016-11-09T01:27:56.783Z,86.43
2016-11-09T01:29:07.221Z,86.48
2016-11-09T01:30:17.660Z,87.06
2016-11-09T01:31:28.099Z,86.87
2016-11-09T01:32:38.569Z,86.77
2016-11-09T01:33:49.009Z,86.77
2016-11-09T01:34:59.450Z,86.77
2016-11-09T01:36:09.895Z,86.68
2016-11-09T01:37:20.339Z,86.68
2016-11-09T01:38:30.779Z,87.06
2016-11-09T01:39:41.236Z,86.77
2016-11-09T01:40:51.707Z,86.48
2016-11-09T01:42:02.142Z,86.39
2016-11-09T01:43:12.580Z,86.77
2016-11-09T01:44:23.020Z,86.87
2016-11-09T01:45:33.460Z,86.68
2016-11-09T01:46:43.906Z,86.96
2016-11-09T01:47:54.350Z,87.16
2016-11-09T01:49:04.785Z,87.06
2016-11-09T01:50:15.226Z,86.87
2016-11-09T01:51:25.667Z,87.35
2016-11-09T01:52:36.104Z,86.96
2016-11-09T01:53:46.545Z,87.26
2016-11-09T01:54:56.986Z,87.45
2016-11-09T01:56:21.968Z,87.54
2016-11-09T01:57:32.436Z,87.64
2016-11-09T01:58:42.975Z,87.64
2016-11-09T01:59:53.412Z,87.74
2016-11-09T02:01:03.853Z,87.35
2016-11-09T02:02:14.332Z,87.83
2016-11-09T02:03:24.973Z,87.74
2016-11-09T02:04:35.412Z,87.35
2016-11-09T02:05:45.873Z,87.54
2016-11-09T02:06:56.312Z,86.96
2016-11-09T02:08:06.753Z,87.16
2016-11-09T02:09:17.394Z,87.35
2016-11-09T02:10:27.866Z,87.45
2016-11-09T02:11:38.341Z,87.64
2016-11-09T02:12:48.782Z,87.83
2016-11-09T02:13:59.217Z,87.74
2016-11-09T02:15:09.864Z,87.93
2016-11-09T02:16:20.331Z,87.93
2016-11-09T02:17:30.769Z,87.45
2016-11-09T02:18:55.756Z,87.45
2016-11-09T02:20:06.196Z,87.35
2016-11-09T02:21:16.739Z,87.64
2016-11-09T02:22:27.173Z,87.54
2016-11-09T02:23:37.615Z,87.45
2016-11-09T02:24:48.056Z,87.35
2016-11-09T02:27:23.507Z,87.16
2016-11-09T02:28:48.492Z,86.68
2016-11-09T02:29:58.931Z,86.68
2016-11-09T02:32:35.050Z,86.68
2016-11-09T02:33:45.526Z,86.68
2016-11-09T02:34:55.969Z,86.58
2016-11-09T02:36:06.309Z,86.39
2016-11-09T02:37:16.726Z,86.48
2016-11-09T02:38:27.085Z,86.48
2016-11-09T02:39:37.406Z,86.87
2016-11-09T02:40:47.730Z,86.29
2016-11-09T02:41:58.163Z,86.29
2016-11-09T02:43:08.499Z,86.58
2016-11-09T02:44:18.819Z,86.58
2016-11-09T02:45:29.144Z,87.26
2016-11-09T02:46:39.463Z,87.64
2016-11-09T02:47:49.982Z,88.22
2016-11-09T02:49:00.303Z,88.41
2016-11-09T02:50:10.635Z,87.54
2016-11-09T02:51:20.962Z,87.35
2016-11-09T02:52:31.284Z,87.45
2016-11-09T02:53:41.608Z,88.51
2016-11-09T02:54:51.927Z,88.51
2016-11-09T02:56:02.248Z,88.31
2016-11-09T02:57:12.567Z,88.22
2016-11-09T02:58:22.888Z,87.16
2016-11-09T02:59:33.306Z,87.7
2016-11-09T03:00:43.630Z,87.64
2016-11-09T03:02:08.521Z,87.83
2016-11-09T03:03:18.845Z,87.54
2016-11-09T03:04:29.638Z,87.35
2016-11-09T03:05:40.059Z,87.26
2016-11-09T03:06:50.386Z,87.64
2016-11-09T03:08:00.709Z,87.74
2016-11-09T03:09:11.031Z,87.35
2016-11-09T03:10:21.364Z,87.16
2016-11-09T03:11:31.687Z,87.45
2016-11-09T03:12:42.047Z,86.87
2016-11-09T03:13:52.943Z,86.87
2016-11-09T03:15:03.358Z,86.77
2016-11-09T03:16:28.421Z,86.29
2016-11-09T03:17:38.850Z,86.58
2016-11-09T03:18:49.262Z,86.68
2016-11-09T03:19:59.676Z,86.77
2016-11-09T03:21:10.187Z,86.58
2016-11-09T03:22:20.607Z,86.29
2016-11-09T03:23:31.020Z,86.29
2016-11-09T03:24:41.433Z,85.81
2016-11-09T03:25:51.847Z,86.39
2016-11-09T03:27:02.264Z,86.48
2016-11-09T03:28:12.678Z,85.61
2016-11-09T03:29:23.094Z,86.48
2016-11-09T03:30:33.505Z,86.1
2016-11-09T03:31:43.921Z,86.19
2016-11-09T03:32:54.533Z,86.39
2016-11-09T03:34:04.946Z,85.71
2016-11-09T03:35:15.354Z,85.23
2016-11-09T03:36:25.773Z,85.13
2016-11-09T03:37:36.184Z,85.33
2016-11-09T03:39:01.245Z,85.03
2016-11-09T03:40:11.660Z,85.13
2016-11-09T03:41:22.068Z,84.75
2016-11-09T03:42:32.511Z,84.65
2016-11-09T03:43:42.966Z,84.07
2016-11-09T03:45:08.022Z,83.5
2016-11-09T03:46:18.555Z,83.2
2016-11-09T03:47:29.088Z,82.72
2016-11-09T03:48:39.621Z,83.01
2016-11-09T03:49:50.151Z,82.24
2016-11-09T03:51:00.679Z,82.14
2016-11-09T03:52:11.211Z,81.57
2016-11-09T03:53:21.776Z,81.76
2016-11-09T03:54:32.409Z,81.27
2016-11-09T03:55:43.451Z,81.12
2016-11-09T03:56:53.983Z,80.69
2016-11-09T03:58:04.478Z,80.12
2016-11-09T03:59:14.916Z,80.64
2016-11-09T04:00:25.556Z,80.54
2016-11-09T04:01:35.991Z,80.6
2016-11-09T04:02:46.434Z,80.31
2016-11-09T04:03:56.868Z,80.22
2016-11-09T04:05:07.312Z,80.26
2016-11-09T04:06:17.850Z,80.31
2016-11-09T04:07:28.290Z,80.31
2016-11-09T04:08:38.763Z,80.41
2016-11-09T04:09:49.207Z,79.77
2016-11-09T04:10:59.648Z,80.31
2016-11-09T04:12:10.086Z,80.54
2016-11-09T04:13:21.013Z,80.45
2016-11-09T04:14:31.653Z,80.16
2016-11-09T04:15:42.091Z,80.35
2016-11-09T04:16:52.533Z,80.45
2016-11-09T04:18:02.974Z,79.74
2016-11-09T04:19:13.417Z,79.54
2016-11-09T04:20:23.887Z,79.64
2016-11-09T04:21:34.326Z,80.02
2016-11-09T04:22:45.264Z,79.77
2016-11-09T04:23:55.702Z,80.26
2016-11-09T04:25:06.139Z,80.35
2016-11-09T04:26:16.575Z,80.54
2016-11-09T04:27:27.011Z,80.45
2016-11-09T04:28:37.457Z,80.54
2016-11-09T04:29:47.902Z,80.6
2016-11-09T04:30:58.343Z,80.41
2016-11-09T04:32:08.784Z,80.16
2016-11-09T04:33:19.253Z,80.31
2016-11-09T04:34:29.699Z,79.77
2016-11-09T04:35:40.744Z,80.22
2016-11-09T04:36:51.181Z,80.16
2016-11-09T04:38:01.618Z,80.26
2016-11-09T04:39:12.548Z,80.26
2016-11-09T04:40:23.003Z,80.45
2016-11-09T04:41:34.042Z,80.64
2016-11-09T04:42:44.484Z,80.45
2016-11-09T04:43:54.928Z,80.35
2016-11-09T04:45:05.369Z,80.51
2016-11-09T04:46:15.804Z,80.22
2016-11-09T04:47:26.247Z,80.31
2016-11-09T04:48:36.690Z,80.54
2016-11-09T04:49:47.099Z,80.89
2016-11-09T04:50:57.420Z,81.09
2016-11-09T04:52:07.746Z,80.69
2016-11-09T04:53:18.542Z,81.18
2016-11-09T04:54:28.861Z,81.09
2016-11-09T04:55:39.187Z,81.09
2016-11-09T04:56:49.516Z,81.09
2016-11-09T04:57:59.837Z,81.57
2016-11-09T04:59:10.259Z,81.66
2016-11-09T05:02:00.072Z,81.85
2016-11-09T05:03:10.406Z,81.76
2016-11-09T05:04:20.867Z,81.95
2016-11-09T05:05:31.186Z,81.37
2016-11-09T05:06:41.510Z,81.57
2016-11-09T05:07:51.831Z,81.57
2016-11-09T05:09:02.154Z,81.76
2016-11-09T05:10:12.475Z,81.57
2016-11-09T05:11:22.803Z,81.62
2016-11-09T05:12:47.700Z,82.39
2016-11-09T05:13:58.055Z,82.14
2016-11-09T05:15:08.378Z,81.47
2016-11-09T05:16:18.698Z,81.52
2016-11-09T05:17:29.016Z,81.62
2016-11-09T05:18:39.338Z,81.52
2016-11-09T05:19:49.663Z,81.52
2016-11-09T05:20:59.982Z,81.52
2016-11-09T05:22:10.344Z,82.2
2016-11-09T05:23:20.665Z,82.1
2016-11-09T05:24:30.986Z,82.29
2016-11-09T05:25:41.309Z,82.1
2016-11-09T05:26:51.729Z,81.62
2016-11-09T05:28:02.052Z,82.1
2016-11-09T05:29:12.376Z,82.1
2016-11-09T05:30:22.697Z,82.97
2016-11-09T05:31:33.043Z,82.78
2016-11-09T05:32:43.401Z,82.68
2016-11-09T05:34:08.290Z,83.07
2016-11-09T05:35:18.610Z,82.68
2016-11-09T05:36:28.931Z,82.87
2016-11-09T05:37:39.246Z,82.49
2016-11-09T05:38:49.567Z,82.68
2016-11-09T05:39:59.891Z,82.97
2016-11-09T05:41:10.217Z,82.49
2016-11-09T05:42:20.536Z,82.97
2016-11-09T05:43:31.431Z,82.68
2016-11-09T05:44:41.754Z,82.87
2016-11-09T05:45:52.072Z,82.87
2016-11-09T05:47:02.393Z,83.45
2016-11-09T05:48:13.192Z,84.12
2016-11-09T05:49:23.515Z,83.8
2016-11-09T05:50:33.833Z,83.74
2016-11-09T05:51:44.162Z,84.03
2016-11-09T05:52:54.481Z,83.84
2016-11-09T05:54:04.804Z,84.09
2016-11-09T05:55:15.224Z,83.45
2016-11-09T05:56:25.545Z,83.45
2016-11-09T05:57:35.874Z,83.26
2016-11-09T05:58:46.197Z,83.16
2016-11-09T05:59:56.519Z,83.07
2016-11-09T06:01:07.040Z,82.97
2016-11-09T06:02:31.927Z,83.26
2016-11-09T06:03:56.814Z,82.97
2016-11-09T06:05:08.011Z,83.45
2016-11-09T06:06:18.334Z,84.03
2016-11-09T06:07:28.654Z,84.03
2016-11-09T06:08:38.972Z,83.55
2016-11-09T06:09:49.295Z,84.22
2016-11-09T06:10:59.611Z,83.99
2016-11-09T06:12:24.706Z,84.18
2016-11-09T06:13:35.503Z,83.99
2016-11-09T06:14:45.826Z,84.12
2016-11-09T06:15:56.144Z,83.55
2016-11-09T06:17:06.467Z,83.84
2016-11-09T06:18:16.792Z,83.94
2016-11-09T06:19:27.118Z,83.45
2016-11-09T06:20:37.440Z,83.55
2016-11-09T06:23:12.850Z,83.55
2016-11-09T06:24:23.170Z,83.45
2016-11-09T06:25:33.489Z,83.64
2016-11-09T06:26:43.812Z,83.26
2016-11-09T06:27:54.132Z,83.74
2016-11-09T06:29:04.455Z,83.16
2016-11-09T06:30:29.358Z,83.16
2016-11-09T06:31:39.803Z,83.16
2016-11-09T06:32:50.262Z,82.87
2016-11-09T06:34:00.701Z,83.07
2016-11-09T06:35:11.143Z,82.97
2016-11-09T06:36:21.579Z,83.07
2016-11-09T06:37:32.023Z,83.84
2016-11-09T06:38:42.462Z,84.12
2016-11-09T06:39:52.901Z,84.03
2016-11-09T06:41:03.388Z,83.55
2016-11-09T06:42:28.368Z,84.03
2016-11-09T06:43:53.550Z,84.12
2016-11-09T06:45:04.023Z,83.94
2016-11-09T06:46:14.490Z,84.03
2016-11-09T06:47:24.925Z,83.74
2016-11-09T06:48:35.400Z,83.64
2016-11-09T06:49:45.947Z,83.94
2016-11-09T06:50:56.385Z,84.03
2016-11-09T06:52:07.310Z,84.12
2016-11-09T06:53:17.749Z,84.32
2016-11-09T06:54:28.189Z,84.22
2016-11-09T06:55:38.727Z,83.94
2016-11-09T06:56:49.167Z,84.12
2016-11-09T06:58:14.149Z,83.64
2016-11-09T06:59:24.588Z,83.55
2016-11-09T07:00:35.030Z,83.64
2016-11-09T07:01:45.463Z,84.03
2016-11-09T07:02:55.903Z,84.12
2016-11-09T07:04:06.307Z,83.84
2016-11-09T07:05:16.631Z,84.03
2016-11-09T07:06:26.947Z,84.7
2016-11-09T07:07:37.270Z,85.34
2016-11-09T07:08:47.593Z,85.24
2016-11-09T07:09:57.943Z,85.72
2016-11-09T07:11:08.304Z,85.82
2016-11-09T07:12:18.626Z,85.82
2016-11-09T07:13:28.953Z,85.82
2016-11-09T07:14:39.746Z,85.91
2016-11-09T07:15:50.064Z,86.21
2016-11-09T07:17:00.380Z,85.43
2016-11-09T07:18:10.904Z,85.43
2016-11-09T07:19:21.224Z,85.14
2016-11-09T07:20:31.546Z,85.24
2016-11-09T07:21:41.887Z,85.43
2016-11-09T07:22:52.207Z,85.24
2016-11-09T07:25:27.618Z,85.53
2016-11-09T07:26:37.943Z,85.05
2016-11-09T07:27:48.260Z,85.72
2016-11-09T07:28:58.584Z,86.3
2016-11-09T07:30:08.905Z,86.74
2016-11-09T07:31:19.227Z,86.49
2016-11-09T07:32:30.026Z,86.93
2016-11-09T07:33:54.916Z,86.21
2016-11-09T07:35:19.804Z,86.01
2016-11-09T07:36:30.470Z,86.49
2016-11-09T07:37:40.833Z,86.21
2016-11-09T07:38:51.270Z,86.21
2016-11-09T07:40:01.734Z,85.82
2016-11-09T07:41:12.176Z,85.34
2016-11-09T07:42:22.612Z,85.28
2016-11-09T07:43:33.054Z,85.63
2016-11-09T07:44:58.035Z,85.34
2016-11-09T07:46:08.613Z,85.47
2016-11-09T07:47:19.050Z,85.09
2016-11-09T07:48:44.063Z,84.9
2016-11-09T07:49:54.501Z,85.28
2016-11-09T07:51:04.943Z,85.47
2016-11-09T07:52:44.469Z,85.67
2016-11-09T07:53:54.905Z,85.28
2016-11-09T07:55:05.544Z,85.09
2016-11-09T07:56:15.980Z,85.57
2016-11-09T07:57:26.427Z,85.09
2016-11-09T07:58:37.354Z,85.57
2016-11-09T07:59:47.789Z,85.47
2016-11-09T08:00:58.329Z,85.28
2016-11-09T08:02:08.773Z,85.19
2016-11-09T08:03:19.210Z,84.95
2016-11-09T08:04:29.654Z,85.38
2016-11-09T08:05:40.092Z,85.28
2016-11-09T08:06:50.631Z,84.8
2016-11-09T08:08:01.070Z,84.99
2016-11-09T08:09:11.508Z,85.19
2016-11-09T08:10:21.947Z,85.14
2016-11-09T08:11:32.392Z,84.95
2016-11-09T08:12:57.374Z,86.11
2016-11-09T08:14:08.303Z,86.01
2016-11-09T08:16:43.725Z,86.21
2016-11-09T08:17:54.359Z,86.49
2016-11-09T08:19:04.797Z,86.3
2016-11-09T08:20:15.234Z,87.07
2016-11-09T08:21:40.217Z,86.59
2016-11-09T08:22:50.650Z,86.88
2016-11-09T08:24:01.085Z,87.07
2016-11-09T08:25:11.527Z,86.3
2016-11-09T08:26:21.964Z,86.59
2016-11-09T08:27:32.929Z,86.21
2016-11-09T08:28:43.373Z,86.3
2016-11-09T08:29:53.814Z,86.3
2016-11-09T08:31:04.255Z,86.01
2016-11-09T08:32:15.185Z,86.3
2016-11-09T08:33:25.625Z,85.63
2016-11-09T08:36:01.041Z,85.67
2016-11-09T08:37:11.480Z,86.44
2016-11-09T08:38:21.919Z,86.05
2016-11-09T08:39:32.393Z,85.86
2016-11-09T08:40:43.052Z,85.09
2016-11-09T08:41:53.509Z,85.09
2016-11-09T08:43:03.955Z,84.99
2016-11-09T08:44:14.353Z,85.57
2016-11-09T08:45:24.830Z,84.8
2016-11-09T08:46:35.149Z,85.28
2016-11-09T08:47:45.473Z,85.38
2016-11-09T08:48:55.795Z,85.72
2016-11-09T08:50:06.149Z,86.11
2016-11-09T08:51:16.571Z,87.26
2016-11-09T08:52:27.367Z,86.59
2016-11-09T08:55:17.156Z,86.59
2016-11-09T08:56:27.579Z,86.59
2016-11-09T08:57:52.468Z,86.4
2016-11-09T08:59:02.788Z,87.07
2016-11-09T09:00:13.115Z,87.46
2016-11-09T09:01:24.329Z,86.88
2016-11-09T09:02:34.650Z,86.3
2016-11-09T09:03:45.483Z,87.07
2016-11-09T09:04:55.805Z,87.17
2016-11-09T09:06:06.128Z,87.32
2016-11-09T09:07:31.117Z,87.46
2016-11-09T09:08:41.441Z,86.59
2016-11-09T09:09:51.759Z,86.59
2016-11-09T09:11:02.079Z,86.69
2016-11-09T09:12:12.888Z,86.69
2016-11-09T09:13:23.343Z,86.69
2016-11-09T09:14:33.789Z,86.01
2016-11-09T09:16:13.301Z,86.3
2016-11-09T09:17:23.715Z,85.91
2016-11-09T09:18:34.358Z,85.67
2016-11-09T09:19:45.461Z,85.77
2016-11-09T09:20:55.990Z,85.86
2016-11-09T09:22:06.520Z,85.67
2016-11-09T09:23:17.049Z,85.57
2016-11-09T09:24:42.309Z,86.05
2016-11-09T09:25:52.872Z,85.28
2016-11-09T09:27:03.434Z,85.28
2016-11-09T09:28:13.964Z,85.57
2016-11-09T09:29:24.594Z,85.19
2016-11-09T09:30:35.127Z,84.8
2016-11-09T09:31:45.660Z,84.61
2016-11-09T09:32:56.193Z,84.7
2016-11-09T09:34:21.253Z,84.03
2016-11-09T09:35:32.030Z,83.74
2016-11-09T09:36:42.559Z,84.12
2016-11-09T09:37:53.084Z,84.61
2016-11-09T09:39:04.113Z,84.99
2016-11-09T09:40:14.643Z,84.9
2016-11-09T09:41:25.680Z,84.7
2016-11-09T09:42:36.213Z,83.74
2016-11-09T09:43:46.753Z,84.9
2016-11-09T09:44:57.285Z,84.61
2016-11-09T09:46:07.912Z,85.38
2016-11-09T09:47:18.442Z,84.7
2016-11-09T09:48:28.972Z,84.61
2016-11-09T09:49:39.503Z,84.32
2016-11-09T09:50:50.031Z,84.32
2016-11-09T09:52:00.670Z,83.84
2016-11-09T09:53:11.203Z,83.94
2016-11-09T09:54:21.728Z,83.84
2016-11-09T09:55:32.258Z,83.55
2016-11-09T09:56:42.795Z,84.03
2016-11-09T09:57:53.530Z,83.74
2016-11-09T09:59:18.583Z,83.55
2016-11-09T10:00:29.114Z,83.07
2016-11-09T10:01:54.172Z,82.87
2016-11-09T10:03:04.702Z,83.01
2016-11-09T10:04:15.234Z,83.4
2016-11-09T10:05:25.765Z,82.92
2016-11-09T10:06:36.294Z,82.62
2016-11-09T10:07:46.823Z,82.43
2016-11-09T10:08:57.560Z,81.66
2016-11-09T10:10:08.098Z,82.72
2016-11-09T10:11:18.631Z,81.47
2016-11-09T10:12:29.310Z,81.66
2016-11-09T10:13:39.846Z,81.47
2016-11-09T10:14:50.479Z,81.66
2016-11-09T10:16:01.008Z,81.66
2016-11-09T10:17:11.537Z,81.32
2016-11-09T10:18:22.067Z,81.95
2016-11-09T10:19:32.598Z,81.37
2016-11-09T10:20:43.131Z,81.22
2016-11-09T10:21:53.697Z,80.16
2016-11-09T10:23:04.234Z,79.58
2016-11-09T10:24:14.769Z,80.35
2016-11-09T10:25:25.298Z,80.26
2016-11-09T10:26:36.030Z,80.35
2016-11-09T10:27:47.066Z,79.68
2016-11-09T10:28:57.598Z,80.16
2016-11-09T10:30:08.200Z,79.49
2016-11-09T10:31:18.737Z,79.19
2016-11-09T10:32:29.273Z,79.39
2016-11-09T10:33:40.331Z,79
2016-11-09T10:34:50.863Z,79.39
2016-11-09T10:36:01.419Z,79.1
2016-11-09T10:37:11.953Z,78.42
2016-11-09T10:38:22.583Z,79.19
2016-11-09T10:39:33.120Z,79.19
2016-11-09T10:40:43.648Z,79.1
2016-11-09T10:41:54.184Z,79.14
2016-11-09T10:43:04.681Z,80.2
2016-11-09T10:44:29.665Z,79.62
2016-11-09T10:45:54.652Z,79.24
2016-11-09T10:47:05.581Z,79.43
2016-11-09T10:48:16.020Z,78.94
2016-11-09T10:49:41.011Z,77.59
2016-11-09T10:50:51.451Z,78.27
2016-11-09T10:52:01.889Z,77.4
2016-11-09T10:53:12.350Z,77.15
2016-11-09T10:54:22.796Z,77.44
2016-11-09T10:55:33.435Z,77.05
2016-11-09T10:56:43.884Z,77.05
2016-11-09T10:59:19.317Z,77.25
2016-11-09T11:00:29.856Z,77.25
2016-11-09T11:01:40.296Z,76.28
2016-11-09T11:03:05.289Z,75.84
2016-11-09T11:04:15.727Z,76.57
2016-11-09T11:05:26.672Z,75.79
2016-11-09T11:06:38.940Z,75.06
2016-11-09T11:07:49.901Z,75.26
2016-11-09T11:09:00.338Z,76.03
2016-11-09T11:10:10.773Z,75.26
2016-11-09T11:11:21.421Z,75.16
2016-11-09T11:12:31.899Z,74.96
2016-11-09T11:13:56.882Z,74.58
2016-11-09T11:15:07.320Z,73.94
2016-11-09T11:16:17.763Z,74.1
2016-11-09T11:17:28.298Z,73.9
2016-11-09T11:18:39.258Z,74.38
2016-11-09T11:19:49.698Z,74.48
2016-11-09T11:21:00.194Z,74
2016-11-09T11:22:10.835Z,73.32
2016-11-09T11:23:21.274Z,74
2016-11-09T11:24:31.714Z,74
2016-11-09T11:25:42.157Z,73.22
2016-11-09T11:28:17.580Z,73.36
2016-11-09T11:29:28.018Z,73.26
2016-11-09T11:30:38.458Z,73.36
2016-11-09T11:31:48.862Z,72.72
2016-11-09T11:32:59.392Z,72.14
2016-11-09T11:34:09.719Z,72.1
2016-11-09T11:35:20.071Z,71.91
2016-11-09T11:36:30.396Z,71.56
2016-11-09T11:37:40.715Z,69.92
2016-11-09T11:40:15.968Z,70.4
2016-11-09T11:41:26.295Z,71.36
2016-11-09T11:42:51.193Z,70.98
2016-11-09T11:44:01.549Z,70.01
2016-11-09T11:45:26.443Z,72.14
2016-11-09T11:46:36.761Z,70.72
2016-11-09T11:48:01.647Z,70.04
2016-11-09T11:49:12.007Z,70.14
2016-11-09T11:50:22.332Z,70.14
2016-11-09T11:51:32.654Z,69.46
2016-11-09T11:52:42.982Z,68.59
2016-11-09T11:53:53.307Z,68.21
2016-11-09T11:56:28.722Z,67.91
2016-11-09T11:57:39.051Z,68.01
2016-11-09T11:58:49.370Z,67.56
2016-11-09T11:59:59.706Z,67.18
2016-11-09T12:01:10.073Z,67.76
2016-11-09T12:02:20.392Z,67.18
2016-11-09T12:03:30.715Z,66.43
2016-11-09T12:04:41.118Z,65.85
2016-11-09T12:05:51.759Z,64.72
2016-11-09T12:07:02.203Z,63.88
2016-11-09T12:08:27.192Z,63.01
2016-11-09T12:09:37.637Z,62.85
2016-11-09T12:10:48.086Z,63.13
2016-11-09T12:11:58.521Z,62.59
2016-11-09T12:13:09.005Z,61.42
2016-11-09T12:14:19.540Z,61.22
2016-11-09T12:15:30.074Z,60.28
2016-11-09T12:16:40.845Z,60.28
2016-11-09T12:18:05.916Z,59.8
2016-11-09T12:19:16.636Z,59.44
2016-11-09T12:20:27.174Z,58.57
2016-11-09T12:21:37.712Z,58.79
2016-11-09T12:22:48.246Z,59.74
2016-11-09T12:24:13.306Z,59.54
2016-11-09T12:25:38.370Z,58.5
2016-11-09T12:26:49.012Z,57.72
2016-11-09T12:27:59.544Z,57.43
2016-11-09T12:29:10.083Z,57.23
2016-11-09T12:30:21.124Z,57.56
2016-11-09T12:31:31.667Z,57.92
2016-11-09T12:32:42.213Z,57.17
2016-11-09T12:36:58.069Z,55.54
2016-11-09T12:38:09.705Z,54.93
2016-11-09T12:39:35.185Z,54.96
2016-11-09T12:41:00.654Z,54.96
2016-11-09T12:42:26.796Z,53.69
2016-11-09T12:43:37.733Z,53.99
2016-11-09T12:44:48.869Z,53.79
2016-11-09T12:46:00.200Z,53.81
2016-11-09T12:47:25.183Z,51.99
2016-11-09T12:48:50.161Z,52.77
2016-11-09T12:50:00.578Z,52.87
2016-11-09T12:51:25.828Z,53.45
2016-11-09T12:52:36.736Z,53.45
2016-11-09T12:53:47.156Z,51.34
2016-11-09T12:56:37.320Z,51.24
2016-11-09T12:57:47.758Z,52.28
2016-11-09T12:59:27.286Z,52.67
2016-11-09T13:00:37.699Z,51.73
2016-11-09T13:01:48.111Z,51.36
2016-11-09T13:02:58.527Z,50.29
2016-11-09T13:04:08.940Z,49.37
2016-11-09T13:05:19.558Z,49.27
2016-11-09T13:06:44.530Z,49.37
2016-11-09T13:07:54.945Z,49.56
2016-11-09T13:09:05.363Z,48.88
2016-11-09T13:10:15.783Z,48.02
2016-11-09T13:11:26.539Z,48.32
2016-11-09T18:11:11.889Z,40.39
2016-11-09T18:12:22.334Z,40
2016-11-09T18:13:32.777Z,40.58
2016-11-09T18:14:43.222Z,40.19
2016-11-09T18:15:53.667Z,40.88
2016-11-09T18:17:04.212Z,40.97
2016-11-09T18:18:14.652Z,41.95
2016-11-09T18:19:25.101Z,42.54
2016-11-09T18:20:35.544Z,42.61
2016-11-09T18:21:45.989Z,42.98
2016-11-09T18:22:56.637Z,42.79
2016-11-09T18:24:07.124Z,42.8
2016-11-09T18:25:32.116Z,42.79
2016-11-09T18:26:42.564Z,42.59
2016-11-09T18:27:53.010Z,42.71
2016-11-09T18:29:04.046Z,42.9
2016-11-09T18:30:14.493Z,42.71
2016-11-09T18:31:24.941Z,43
2016-11-09T18:32:35.393Z,44.46
2016-11-09T18:33:45.944Z,45.42
2016-11-09T18:34:56.422Z,47.07
2016-11-09T18:36:06.870Z,47.95
2016-11-09T18:38:42.301Z,48.05
2016-11-09T18:39:52.945Z,47.56
2016-11-09T18:41:03.900Z,48.44
2016-11-09T18:42:14.344Z,48.34
2016-11-09T18:43:24.791Z,47.15
2016-11-09T18:44:49.777Z,48.02
2016-11-09T18:46:00.220Z,48.24
2016-11-09T18:47:10.666Z,47.63
2016-11-09T18:48:21.110Z,47.83
2016-11-09T18:49:31.589Z,47.34
2016-11-09T18:50:42.042Z,47.44
2016-11-09T18:51:52.491Z,47.15
2016-11-09T18:53:02.935Z,45.78
2016-11-09T18:54:13.382Z,46.37
2016-11-09T18:55:23.927Z,46.27
2016-11-09T18:56:34.369Z,45.88
2016-11-09T18:57:44.853Z,45.88
2016-11-09T18:58:55.389Z,44.73
2016-11-09T19:00:05.927Z,45.32
2016-11-09T19:01:16.663Z,46.27
2016-11-09T19:02:41.731Z,46.3
2016-11-09T19:03:52.310Z,46.49
2016-11-09T19:05:02.847Z,47.17
2016-11-09T19:06:13.381Z,48.41
2016-11-09T19:07:23.915Z,49.49
2016-11-09T19:08:34.452Z,50.43
2016-11-09T19:09:44.987Z,51.9
2016-11-09T19:10:55.527Z,54.5
2016-11-09T19:12:20.793Z,55.54
2016-11-09T19:13:31.335Z,59.11
2016-11-09T19:14:41.870Z,62.97
2016-11-09T19:15:52.408Z,63.45
2016-11-09T19:17:02.947Z,65.3
2016-11-09T19:18:13.511Z,68.51
2016-11-09T19:19:24.050Z,69.15
2016-11-09T19:20:34.592Z,70.39
2016-11-09T19:21:45.127Z,71.94
2016-11-09T19:22:56.372Z,72.77
2016-11-09T19:24:06.911Z,73.74
2016-11-09T19:25:17.445Z,74.19
2016-11-09T19:26:28.477Z,73.8
2016-11-09T19:27:39.009Z,73.61
2016-11-09T19:28:49.577Z,73.58
2016-11-09T19:30:00.114Z,72.8
